Impacts METAR Board
IDs:

KBWI - Baltimore-Washington, MD, US

Updated at: 1700 UTC 23 Jul 2018
Potential Impact None Slight Moderate High
Time 23/05Z 23/06Z 23/07Z 23/08Z 23/09Z 23/10Z 23/11Z 23/12Z 23/13Z 23/14Z 23/15Z 23/16Z 23/17Z
Temp75 75 77 77 77 77 76 77 76 77 79 81 78
Dewpt75 74 76 76 76 76 75 75 73 73 73 74 74
Altim29.88 29.86 29.87 29.88 29.89 29.90 29.93 29.95 29.97 29.96 29.98 30.00 29.99
VIS2.5 2 7 10 6 5 5 7 10 10 10 10 2
CIG6 38 8 17 10 14 25 65 65 110 25 25 12
CoverOVCOVCOVCOVCOVCOVCOVCBKNBKNBKNBKNOVCOVC
FltCatIFRIFRIFRMVFRMVFRMVFRMVFRVFRVFRVFRMVFRMVFRIFR
WX-RA BR-TSRA BR----BRBRBR----------+RA BR
WDir90200130130120130120160110100120120160
WSpd6 5 4 6 8 7 7 5 6 7 7 9 5
WGst-- 20 -- -- -- -- -- -- -- -- -- -- --
Raw hourly METARs
KBWI 230458Z 09006KT 2 1/2SM -RA BR BKN006 OVC014 24/24 A2988 RMK AO2 P0000 T02390239 $
KBWI 230603Z 20005G20KT 2SM -TSRA BR SCT008 BKN038CB OVC065 24/23 A2986 RMK AO2 OCNL LTGIC OHD TS OHD MOV N P0002 T02390233 $
KBWI 230654Z 13004KT 7SM BKN008 OVC017 25/24 A2987 RMK AO2 RAE39 TSE14 SLP112 P0004 T02500244 $
KBWI 230754Z 13006KT 10SM SCT008 BKN017 OVC030 25/24 A2988 RMK AO2 RAB02E16 SLP116 P0000 T02500244 $
KBWI 230854Z 12008KT 6SM BR BKN010 BKN017 OVC030 25/24 A2989 RMK AO2 SLP119 60004 T02500244 53005 $
KBWI 230954Z 13007KT 5SM BR SCT009 BKN014 BKN030 OVC140 25/24 A2990 RMK AO2 SLP123 CB DSNT E-SE MOV N T02500244 $
KBWI 231054Z 12007KT 5SM BR SCT012 BKN025 BKN065 OVC140 24/24 A2993 RMK AO2 RAB03E22 SLP133 P0000 T02440239 $
KBWI 231154Z 16005KT 7SM FEW014 SCT020 BKN065 25/24 A2995 RMK AO2 SLP142 MDT CU NE-E 60004 70096 T02500239 10250 20239 53022
KBWI 231254Z 11006KT 10SM SCT020 BKN065 BKN180 24/23 A2997 RMK AO2 RAB10E19 SLP147 P0000 T02440228
KBWI 231354Z 10007KT 10SM FEW025 SCT065 BKN110 BKN250 25/23 A2996 RMK AO2 SLP144 T02500228
KBWI 231454Z 12007KT 10SM SCT015 BKN025 BKN065 26/23 A2998 RMK AO2 SLP152 60000 T02610228 53010
KBWI 231554Z 12009KT 10SM SCT015 BKN025 OVC065 27/23 A3000 RMK AO2 RAB01E22 SLP156 P0000 T02720233
KBWI 231705Z 16005KT 2SM R10/2800VP6000FT +RA BR SCT008 BKN012 OVC025 26/23 A2999 RMK AO2 P0003 T02560233



Page loaded:  17:30 UTC  |   10:30 AM Pacific  |   11:30 AM Mountain  |   12:30 PM Central  |   01:30 PM Eastern

 

ADVISORIES

FORECASTS

FORECASTS

OBSERVATIONS

USER TOOLS

ABOUT US